Time;durP1;ratioP1;P1;durP2;ratioP2;P2;SDS_P1;SDS_P2;PMS_P1;PMS_P2;Temp;Humidity;BMP_temperature;BMP_pressure;BME280_temperature;BME280_humidity;BME280_pressure;Samples;Min_cycle;Max_cycle;Signal;HPM_P1;HPM_P2
2023/08/22 00:01:24;;;;;;;24.30;22.43;;;21.40;99.90;;;;;;5029741;28;20340;-40
2023/08/22 00:03:52;;;;;;;23.70;21.97;;;21.40;99.90;;;;;;5028757;28;20194;-44
2023/08/22 00:06:20;;;;;;;24.83;23.00;;;21.40;99.90;;;;;;5029893;28;20433;-43
2023/08/22 00:08:46;;;;;;;24.67;22.87;;;21.40;99.90;;;;;;5028370;28;20437;-42
2023/08/22 00:11:13;;;;;;;24.60;22.80;;;21.30;99.90;;;;;;5029305;28;20464;-46
2023/08/22 00:13:40;;;;;;;23.90;22.20;;;21.30;99.90;;;;;;5028767;28;20467;-44
2023/08/22 00:16:05;;;;;;;25.40;23.33;;;21.30;99.90;;;;;;5028037;28;21025;-40
2023/08/22 00:18:32;;;;;;;24.63;22.73;;;21.30;99.90;;;;;;5028227;28;20516;-42
2023/08/22 00:20:59;;;;;;;23.47;21.77;;;21.30;99.90;;;;;;5027768;28;20194;-44
2023/08/22 00:23:25;;;;;;;25.00;23.10;;;21.30;99.90;;;;;;5029110;28;20436;-42
2023/08/22 00:25:52;;;;;;;24.53;22.73;;;21.30;99.90;;;;;;5028671;28;20834;-45
2023/08/22 00:28:17;;;;;;;25.60;23.70;;;21.30;99.90;;;;;;5028201;28;20186;-51
2023/08/22 00:30:47;;;;;;;26.07;24.07;;;21.30;99.90;;;;;;5029249;28;20472;-55
2023/08/22 00:33:13;;;;;;;26.30;24.20;;;21.30;99.90;;;;;;5028212;28;20209;-54
2023/08/22 00:35:38;;;;;;;25.63;23.73;;;21.30;99.90;;;;;;5029143;28;20422;-53
2023/08/22 00:38:04;;;;;;;24.43;22.53;;;21.40;99.90;;;;;;5027900;28;20578;-55
2023/08/22 00:40:30;;;;;;;24.80;22.90;;;21.40;99.90;;;;;;5027489;28;20281;-52
2023/08/22 00:42:55;;;;;;;25.00;23.00;;;21.40;99.90;;;;;;5027701;28;20204;-46
2023/08/22 00:45:21;;;;;;;25.50;23.50;;;21.40;99.90;;;;;;5027812;28;20222;-55
2023/08/22 00:47:46;;;;;;;23.43;21.63;;;21.40;99.90;;;;;;5027703;28;20197;-55
2023/08/22 00:50:12;;;;;;;24.33;22.43;;;21.40;99.90;;;;;;5029001;28;20210;-47
2023/08/22 00:52:38;;;;;;;24.47;22.63;;;21.40;99.90;;;;;;5028782;28;20514;-53
2023/08/22 00:55:04;;;;;;;25.17;23.40;;;21.50;99.90;;;;;;5028127;28;20194;-55
2023/08/22 00:57:29;;;;;;;24.83;22.83;;;21.50;99.90;;;;;;5028087;28;20216;-53
2023/08/22 00:59:57;;;;;;;24.47;22.67;;;21.50;99.90;;;;;;5028012;28;20863;-49
2023/08/22 01:02:22;;;;;;;24.63;22.90;;;21.50;99.90;;;;;;5027545;28;20193;-55
2023/08/22 01:04:48;;;;;;;24.10;22.20;;;21.40;99.90;;;;;;5028328;28;20442;-56
2023/08/22 01:07:25;;;;;;;24.40;22.50;;;21.40;99.90;;;;;;5026880;28;20252;-55
2023/08/22 01:09:57;;;;;;;24.87;23.07;;;21.40;99.90;;;;;;5028264;28;20210;-49
2023/08/22 01:12:42;;;;;;;24.70;22.97;;;21.30;99.90;;;;;;5028754;28;20563;-51
2023/08/22 01:15:20;;;;;;;25.83;23.73;;;21.30;99.90;;;;;;5027562;28;21001;-54
2023/08/22 01:17:47;;;;;;;24.80;22.90;;;21.20;99.90;;;;;;5028398;28;20436;-51
2023/08/22 01:20:12;;;;;;;25.00;23.00;;;21.20;99.90;;;;;;5024806;28;20438;-51
2023/08/22 01:22:41;;;;;;;25.33;23.43;;;21.20;99.90;;;;;;5027461;28;20435;-55
2023/08/22 01:25:08;;;;;;;25.33;23.30;;;21.20;99.90;;;;;;5026173;28;20794;-55
2023/08/22 01:27:45;;;;;;;26.10;24.00;;;21.10;99.90;;;;;;5027286;28;20445;-54
2023/08/22 01:30:16;;;;;;;24.93;23.10;;;21.10;99.90;;;;;;5027938;28;20561;-49
2023/08/22 01:32:48;;;;;;;25.43;23.40;;;21.10;99.90;;;;;;5027744;28;20528;-54
2023/08/22 01:35:16;;;;;;;26.00;24.13;;;21.10;99.90;;;;;;5026005;28;20479;-48
2023/08/22 01:37:43;;;;;;;26.17;24.27;;;21.00;99.90;;;;;;5028182;28;20440;-53
2023/08/22 01:40:10;;;;;;;25.83;23.83;;;20.90;99.90;;;;;;5028168;28;20516;-53
2023/08/22 01:42:36;;;;;;;25.30;23.40;;;20.90;99.90;;;;;;5028422;28;20421;-54
2023/08/22 01:45:01;;;;;;;25.03;23.23;;;20.90;99.90;;;;;;5027782;28;20444;-53
2023/08/22 01:47:27;;;;;;;25.83;23.93;;;20.90;99.90;;;;;;5027427;28;20193;-54
2023/08/22 01:49:53;;;;;;;26.20;23.80;;;20.80;99.90;;;;;;5027327;28;20289;-53
2023/08/22 01:52:18;;;;;;;26.03;24.07;;;20.80;99.90;;;;;;5028224;28;20233;-45
2023/08/22 01:54:44;;;;;;;26.50;24.40;;;20.80;99.90;;;;;;5022541;28;20225;-50
2023/08/22 01:57:09;;;;;;;27.23;25.13;;;20.80;99.90;;;;;;5027426;28;20197;-53
2023/08/22 01:59:35;;;;;;;27.80;25.57;;;20.80;99.90;;;;;;5027971;28;20672;-53
2023/08/22 02:02:01;;;;;;;25.40;23.50;;;20.70;99.90;;;;;;5027961;28;20206;-46
2023/08/22 02:04:27;;;;;;;26.93;24.83;;;20.70;99.90;;;;;;5025285;28;20640;-54
2023/08/22 02:06:52;;;;;;;26.33;24.30;;;20.70;99.90;;;;;;5027845;28;20284;-54
2023/08/22 02:09:18;;;;;;;26.57;24.57;;;20.60;99.90;;;;;;5022427;28;20913;-53
2023/08/22 02:11:43;;;;;;;26.37;24.37;;;20.60;99.90;;;;;;5026060;28;20183;-49
2023/08/22 02:14:09;;;;;;;27.70;25.47;;;20.50;99.90;;;;;;5027343;28;20691;-50
2023/08/22 02:16:35;;;;;;;28.90;26.70;;;20.50;99.90;;;;;;5028183;28;20186;-49
2023/08/22 02:19:00;;;;;;;27.30;25.20;;;20.50;99.90;;;;;;5028705;28;20189;-53
2023/08/22 02:21:26;;;;;;;27.30;25.17;;;20.40;99.90;;;;;;5031508;28;20208;-53
2023/08/22 02:23:51;;;;;;;27.70;25.60;;;20.40;99.90;;;;;;5029358;28;20673;-50
2023/08/22 02:26:17;;;;;;;29.37;26.70;;;20.30;99.90;;;;;;5031366;28;20252;-54
2023/08/22 02:28:43;;;;;;;29.90;27.50;;;20.20;99.90;;;;;;5030161;28;20186;-52
2023/08/22 02:31:08;;;;;;;28.40;26.10;;;20.20;99.90;;;;;;5031370;28;20223;-51
2023/08/22 02:33:34;;;;;;;28.00;25.77;;;20.30;99.90;;;;;;5030011;28;20218;-52
2023/08/22 02:36:00;;;;;;;27.20;25.10;;;20.30;99.90;;;;;;5030889;28;20236;-54
2023/08/22 02:38:26;;;;;;;27.53;25.37;;;20.30;99.90;;;;;;5029427;28;20197;-53
2023/08/22 02:40:52;;;;;;;27.40;25.10;;;20.20;99.90;;;;;;5030962;28;20769;-54
2023/08/22 02:43:17;;;;;;;27.27;25.17;;;20.20;99.90;;;;;;5030453;28;20186;-49
2023/08/22 02:45:45;;;;;;;25.90;23.90;;;20.20;99.90;;;;;;5031109;28;20186;-53
2023/08/22 02:48:11;;;;;;;27.30;25.10;;;20.20;99.90;;;;;;5030011;28;20198;-47
2023/08/22 02:50:36;;;;;;;28.30;25.83;;;20.20;99.90;;;;;;5030738;28;20914;-54
2023/08/22 02:53:02;;;;;;;27.37;25.27;;;20.10;99.90;;;;;;5030841;28;20185;-52
2023/08/22 02:55:28;;;;;;;28.37;25.83;;;20.20;99.90;;;;;;5029842;28;20182;-53
2023/08/22 02:57:54;;;;;;;25.57;23.57;;;20.20;99.90;;;;;;5030198;28;20957;-52
2023/08/22 03:00:19;;;;;;;26.57;24.57;;;20.10;99.90;;;;;;5030551;28;20713;-54
2023/08/22 03:02:46;;;;;;;26.70;24.70;;;20.10;99.90;;;;;;5029809;28;20253;-47
2023/08/22 03:05:12;;;;;;;25.60;23.60;;;20.10;99.90;;;;;;5028808;28;20182;-53
2023/08/22 03:07:38;;;;;;;25.50;23.50;;;20.00;99.90;;;;;;5028998;28;20880;-53
2023/08/22 03:10:04;;;;;;;26.13;24.23;;;20.00;99.90;;;;;;5030423;28;20551;-49
2023/08/22 03:12:30;;;;;;;25.37;23.43;;;20.00;99.90;;;;;;5026708;28;20210;-50
2023/08/22 03:14:55;;;;;;;25.77;23.77;;;20.00;99.90;;;;;;5029749;28;20485;-55
2023/08/22 03:17:21;;;;;;;27.90;25.60;;;20.00;99.90;;;;;;5028021;28;20186;-54
2023/08/22 03:19:47;;;;;;;27.17;24.97;;;20.00;99.90;;;;;;5028854;28;20659;-54
2023/08/22 03:22:12;;;;;;;26.73;24.73;;;20.00;99.90;;;;;;5030151;28;20256;-54
2023/08/22 03:24:38;;;;;;;27.83;25.73;;;19.90;99.90;;;;;;5029175;28;20183;-53
2023/08/22 03:27:04;;;;;;;27.30;25.10;;;19.80;99.90;;;;;;5029558;28;20183;-47
2023/08/22 03:29:30;;;;;;;26.27;24.20;;;19.80;99.90;;;;;;5029072;28;20218;-52
2023/08/22 03:31:57;;;;;;;26.90;24.70;;;19.80;99.90;;;;;;5028646;28;20540;-49
2023/08/22 03:34:23;;;;;;;27.00;24.80;;;19.80;99.90;;;;;;5029739;28;20190;-55
2023/08/22 03:36:48;;;;;;;26.67;24.47;;;19.80;99.90;;;;;;5029890;28;20729;-54
2023/08/22 03:39:14;;;;;;;27.47;25.13;;;19.80;99.90;;;;;;5029713;28;20191;-53
2023/08/22 03:41:40;;;;;;;27.90;25.60;;;19.80;99.90;;;;;;5029675;28;20191;-53
2023/08/22 03:44:05;;;;;;;26.70;24.70;;;19.80;99.90;;;;;;5029138;28;20198;-53
2023/08/22 03:46:31;;;;;;;27.17;24.97;;;19.80;99.90;;;;;;5028726;28;20190;-49
2023/08/22 03:48:56;;;;;;;27.60;25.40;;;19.80;99.90;;;;;;5028327;28;20206;-55
2023/08/22 03:51:22;;;;;;;25.80;23.80;;;19.80;99.90;;;;;;5029512;28;20202;-52
2023/08/22 03:53:48;;;;;;;25.70;23.77;;;19.90;99.90;;;;;;5030100;28;20240;-52
2023/08/22 03:56:14;;;;;;;27.80;25.37;;;19.90;99.90;;;;;;5027103;28;20229;-53
2023/08/22 03:58:39;;;;;;;27.77;25.63;;;19.90;99.90;;;;;;5029108;28;20445;-54
2023/08/22 04:01:05;;;;;;;26.97;24.87;;;19.90;99.90;;;;;;5029622;28;20672;-53
2023/08/22 04:03:31;;;;;;;26.87;24.80;;;20.00;99.90;;;;;;5029238;28;20270;-51
2023/08/22 04:06:00;;;;;;;26.83;24.73;;;20.00;99.90;;;;;;5029029;28;20193;-53
2023/08/22 04:08:26;;;;;;;26.40;24.20;;;20.00;99.90;;;;;;5027656;28;20495;-51
2023/08/22 04:10:52;;;;;;;25.33;23.33;;;20.00;99.90;;;;;;5028923;28;20554;-55
2023/08/22 04:13:18;;;;;;;26.00;23.90;;;20.00;99.90;;;;;;5029063;28;20417;-53
2023/08/22 04:15:44;;;;;;;26.20;24.03;;;20.00;99.90;;;;;;5022072;28;20503;-48
2023/08/22 04:18:09;;;;;;;26.70;24.47;;;20.00;99.90;;;;;;5017865;28;20574;-52
2023/08/22 04:20:35;;;;;;;24.80;22.90;;;20.00;99.90;;;;;;5018921;28;20185;-52
2023/08/22 04:23:00;;;;;;;24.93;23.13;;;20.10;99.90;;;;;;5020007;28;20231;-48
2023/08/22 04:25:26;;;;;;;25.30;23.30;;;20.10;99.90;;;;;;5020364;28;20372;-53
2023/08/22 04:27:52;;;;;;;25.97;23.97;;;20.10;99.90;;;;;;5019197;28;20190;-55
2023/08/22 04:30:19;;;;;;;25.60;23.60;;;20.10;99.90;;;;;;5019979;28;20226;-50
2023/08/22 04:32:44;;;;;;;26.37;24.37;;;20.10;99.90;;;;;;5019662;28;20447;-52
2023/08/22 04:35:10;;;;;;;26.47;24.27;;;20.10;99.90;;;;;;5018072;28;20350;-54
2023/08/22 04:37:35;;;;;;;26.47;24.37;;;20.10;99.90;;;;;;5019310;28;20190;-55
2023/08/22 04:40:03;;;;;;;25.70;23.60;;;20.10;99.90;;;;;;5017446;28;20197;-53
2023/08/22 04:42:29;;;;;;;26.57;24.47;;;20.20;99.90;;;;;;5018607;28;20198;-51
2023/08/22 04:44:54;;;;;;;26.20;24.20;;;20.20;99.90;;;;;;5019623;28;20467;-56
2023/08/22 04:47:20;;;;;;;27.30;24.90;;;20.20;99.90;;;;;;5020282;28;20456;-54
2023/08/22 04:49:46;;;;;;;25.73;23.63;;;20.20;99.90;;;;;;5019932;28;20221;-55
2023/08/22 04:52:11;;;;;;;26.87;23.80;;;20.30;99.90;;;;;;5019529;28;20209;-50
2023/08/22 04:54:37;;;;;;;26.00;23.80;;;20.30;99.90;;;;;;5019238;28;20186;-56
2023/08/22 04:57:02;;;;;;;27.17;24.77;;;20.40;99.90;;;;;;5019199;28;20245;-54
2023/08/22 04:59:28;;;;;;;26.47;24.37;;;20.40;99.90;;;;;;5019559;28;20269;-49
2023/08/22 05:01:54;;;;;;;24.63;22.77;;;20.50;99.90;;;;;;5019120;28;20684;-50
2023/08/22 05:04:19;;;;;;;24.40;22.53;;;20.50;99.90;;;;;;5019716;28;20226;-50
2023/08/22 05:06:45;;;;;;;25.67;23.67;;;20.60;99.90;;;;;;5019605;28;20194;-50
2023/08/22 05:09:13;;;;;;;27.27;25.20;;;20.70;99.90;;;;;;5019935;28;20189;-55
2023/08/22 05:11:40;;;;;;;24.23;22.23;;;20.70;99.90;;;;;;5019619;28;20526;-55
2023/08/22 05:14:06;;;;;;;24.70;22.70;;;20.70;99.90;;;;;;5019334;28;20472;-54
2023/08/22 05:16:32;;;;;;;26.63;24.43;;;20.70;99.90;;;;;;5018929;28;20846;-52
2023/08/22 05:18:57;;;;;;;25.03;23.03;;;20.80;99.90;;;;;;5019100;28;20436;-46
2023/08/22 05:21:24;;;;;;;26.07;23.70;;;20.80;99.90;;;;;;5019775;28;20272;-52
2023/08/22 05:23:49;;;;;;;25.30;23.50;;;20.90;99.90;;;;;;5019531;28;20178;-55
2023/08/22 05:26:15;;;;;;;25.37;23.37;;;20.90;99.90;;;;;;5019564;28;20416;-49
2023/08/22 05:28:40;;;;;;;23.97;22.23;;;21.00;99.90;;;;;;5019096;28;20301;-55
2023/08/22 05:31:06;;;;;;;24.80;23.00;;;21.10;99.90;;;;;;5019607;28;20221;-54
2023/08/22 05:33:32;;;;;;;25.20;23.10;;;21.20;99.90;;;;;;5019156;28;20720;-49
2023/08/22 05:35:57;;;;;;;25.53;23.63;;;21.30;99.90;;;;;;5019169;28;20182;-50
2023/08/22 05:38:23;;;;;;;24.83;23.00;;;21.40;99.90;;;;;;5018779;28;20202;-53
2023/08/22 05:40:49;;;;;;;24.87;22.97;;;21.50;99.90;;;;;;5019349;28;20657;-51
2023/08/22 05:43:15;;;;;;;23.60;21.80;;;21.50;99.90;;;;;;5019613;28;20285;-50
2023/08/22 05:45:42;;;;;;;24.80;22.80;;;21.60;99.90;;;;;;5018445;28;20711;-55
2023/08/22 05:48:07;;;;;;;24.17;22.23;;;21.50;99.90;;;;;;5019312;28;20516;-54
2023/08/22 05:50:33;;;;;;;24.80;23.00;;;21.60;99.90;;;;;;5019417;28;20467;-52
2023/08/22 05:52:58;;;;;;;25.27;23.07;;;21.60;99.90;;;;;;5017691;28;20178;-54
2023/08/22 05:55:24;;;;;;;25.70;23.43;;;21.60;99.90;;;;;;5022183;28;20294;-53
2023/08/22 05:57:50;;;;;;;24.60;22.60;;;21.60;99.90;;;;;;5023422;28;20179;-51
2023/08/22 06:00:16;;;;;;;25.77;23.80;;;21.70;99.90;;;;;;5023167;28;20194;-54
2023/08/22 06:02:42;;;;;;;24.30;22.57;;;21.70;99.90;;;;;;5022810;28;20554;-55
2023/08/22 06:05:07;;;;;;;25.73;23.83;;;21.70;99.90;;;;;;5021529;28;20445;-56
2023/08/22 06:07:33;;;;;;;25.50;23.10;;;21.80;99.90;;;;;;5022818;28;20185;-54
2023/08/22 06:10:00;;;;;;;23.93;22.23;;;21.80;99.90;;;;;;5022480;28;20214;-52
2023/08/22 06:12:26;;;;;;;25.70;23.80;;;21.80;99.90;;;;;;5022307;28;20166;-54
2023/08/22 06:14:52;;;;;;;24.10;22.40;;;21.90;99.90;;;;;;5022233;28;20468;-53
2023/08/22 06:17:17;;;;;;;25.30;23.33;;;22.10;99.90;;;;;;5022219;28;20185;-53
2023/08/22 06:19:43;;;;;;;24.67;22.80;;;22.20;99.90;;;;;;5022944;28;20189;-48
2023/08/22 06:22:09;;;;;;;24.30;22.60;;;22.30;99.90;;;;;;5022336;28;20264;-53
2023/08/22 06:24:34;;;;;;;24.40;22.73;;;22.40;99.90;;;;;;5021736;28;20191;-54
2023/08/22 06:27:00;;;;;;;23.97;22.30;;;22.50;99.90;;;;;;5022450;28;20211;-54
2023/08/22 06:29:25;;;;;;;24.07;22.40;;;22.50;99.90;;;;;;5022084;28;20182;-52
2023/08/22 06:31:51;;;;;;;25.93;23.67;;;22.60;99.90;;;;;;5022233;28;20565;-53
2023/08/22 06:34:16;;;;;;;24.33;22.60;;;22.60;99.90;;;;;;5022193;28;20182;-56
2023/08/22 06:36:42;;;;;;;24.27;22.57;;;22.60;99.90;;;;;;5022205;28;20214;-55
2023/08/22 06:39:08;;;;;;;25.37;23.57;;;22.60;99.90;;;;;;5022146;28;20591;-47
2023/08/22 06:41:35;;;;;;;24.70;22.90;;;22.70;99.90;;;;;;5021173;28;20973;-53
2023/08/22 06:44:07;;;;;;;23.10;21.50;;;22.70;99.90;;;;;;5022239;28;20788;-52
2023/08/22 06:46:34;;;;;;;23.27;21.67;;;22.80;99.90;;;;;;5021519;28;20819;-51
2023/08/22 06:49:00;;;;;;;23.87;22.13;;;22.80;99.90;;;;;;5021997;28;20515;-52
2023/08/22 06:51:26;;;;;;;23.50;21.87;;;22.90;99.90;;;;;;5020494;28;20806;-56
2023/08/22 06:53:51;;;;;;;24.03;22.40;;;23.10;99.90;;;;;;5022147;28;20280;-51
2023/08/22 06:56:17;;;;;;;23.83;22.23;;;23.10;99.90;;;;;;5021879;28;20183;-52
2023/08/22 06:58:43;;;;;;;25.13;23.00;;;23.20;99.90;;;;;;5021495;28;20178;-51
2023/08/22 07:01:09;;;;;;;23.70;21.83;;;23.30;99.90;;;;;;5021962;28;20286;-53
2023/08/22 07:03:34;;;;;;;25.53;23.70;;;23.40;99.90;;;;;;5021650;28;20183;-54
2023/08/22 07:06:00;;;;;;;23.83;22.13;;;23.50;99.90;;;;;;5020097;28;20437;-48
2023/08/22 07:08:26;;;;;;;24.13;22.43;;;23.60;99.90;;;;;;5021328;28;20292;-54
2023/08/22 07:10:51;;;;;;;22.93;21.23;;;23.80;99.90;;;;;;5021354;28;20248;-53
2023/08/22 07:13:18;;;;;;;23.63;21.93;;;23.90;99.90;;;;;;5021243;28;20186;-54
2023/08/22 07:15:43;;;;;;;23.00;21.40;;;24.00;99.90;;;;;;5020987;28;20201;-53
2023/08/22 07:18:09;;;;;;;23.70;22.10;;;24.10;99.90;;;;;;5020196;28;20913;-51
2023/08/22 07:20:35;;;;;;;22.57;20.77;;;24.30;99.90;;;;;;5019880;28;20191;-53
2023/08/22 07:23:00;;;;;;;23.40;21.60;;;24.40;99.90;;;;;;5021381;28;20203;-51
2023/08/22 07:25:26;;;;;;;21.70;20.20;;;24.50;99.90;;;;;;5020839;28;20264;-55
2023/08/22 07:27:52;;;;;;;20.80;19.30;;;24.70;99.90;;;;;;5021098;28;20218;-52
2023/08/22 07:30:17;;;;;;;21.43;19.87;;;24.90;99.90;;;;;;5021160;28;20683;-52
2023/08/22 07:32:43;;;;;;;21.93;20.43;;;25.00;99.90;;;;;;5021293;28;20190;-56
2023/08/22 07:35:08;;;;;;;21.90;20.40;;;25.10;99.90;;;;;;5020661;28;20190;-55
2023/08/22 07:37:34;;;;;;;21.50;19.90;;;25.30;99.90;;;;;;5019197;28;20399;-50
2023/08/22 07:40:00;;;;;;;22.03;20.50;;;25.40;99.90;;;;;;5020929;28;20734;-51
2023/08/22 07:42:25;;;;;;;20.17;18.87;;;25.60;99.90;;;;;;5019418;28;20193;-54
2023/08/22 07:44:51;;;;;;;20.00;18.70;;;25.70;99.90;;;;;;5020111;28;20678;-52
2023/08/22 07:47:17;;;;;;;20.20;18.90;;;25.90;99.90;;;;;;5019179;28;20186;-49
2023/08/22 07:49:42;;;;;;;21.07;19.67;;;26.00;99.90;;;;;;5020787;28;20253;-51
2023/08/22 07:52:08;;;;;;;19.00;17.90;;;26.10;99.90;;;;;;5021096;28;20525;-44
2023/08/22 07:54:34;;;;;;;20.07;18.67;;;26.30;99.90;;;;;;5020878;28;20195;-41
2023/08/22 07:57:00;;;;;;;18.97;17.77;;;26.40;99.90;;;;;;5019835;28;20222;-44
2023/08/22 07:59:25;;;;;;;20.17;18.43;;;26.60;99.90;;;;;;5020628;28;20197;-46
2023/08/22 08:01:51;;;;;;;19.10;17.90;;;26.70;99.90;;;;;;5020402;28;20417;-42
2023/08/22 08:04:17;;;;;;;20.90;19.50;;;26.90;99.90;;;;;;5020489;28;20201;-42
2023/08/22 08:06:42;;;;;;;19.27;18.07;;;27.00;99.90;;;;;;5017894;28;20265;-46
2023/08/22 08:09:08;;;;;;;19.63;18.43;;;27.10;99.90;;;;;;5019340;28;20620;-45
2023/08/22 08:11:34;;;;;;;19.13;17.93;;;27.30;99.90;;;;;;5019928;28;20608;-46
2023/08/22 08:13:59;;;;;;;18.90;17.50;;;27.40;99.90;;;;;;5020270;28;20556;-45
2023/08/22 08:16:25;;;;;;;19.40;18.20;;;27.50;99.90;;;;;;5020454;28;20464;-46
2023/08/22 08:18:54;;;;;;;20.13;18.70;;;27.60;99.90;;;;;;5020200;28;20198;-46
2023/08/22 08:21:20;;;;;;;19.63;18.40;;;27.80;99.90;;;;;;5019362;28;20201;-43
2023/08/22 08:23:45;;;;;;;18.70;17.50;;;27.90;99.90;;;;;;5020358;28;20429;-47
2023/08/22 08:26:11;;;;;;;18.67;17.37;;;28.10;99.90;;;;;;5020124;28;20431;-42
2023/08/22 08:28:38;;;;;;;18.80;17.70;;;28.30;99.90;;;;;;5019865;28;20482;-43
2023/08/22 08:31:04;;;;;;;19.00;17.90;;;28.40;99.90;;;;;;5019905;28;20992;-42
2023/08/22 08:33:31;;;;;;;18.87;17.67;;;28.70;99.90;;;;;;5019909;28;21398;-47
2023/08/22 08:35:56;;;;;;;19.30;18.20;;;28.90;99.90;;;;;;5020478;28;20479;-49
2023/08/22 08:38:22;;;;;;;20.20;18.87;;;29.10;99.50;;;;;;5019954;28;20433;-45
2023/08/22 08:40:48;;;;;;;18.53;17.30;;;29.30;98.50;;;;;;5019211;28;20241;-47
2023/08/22 08:43:14;;;;;;;19.20;17.93;;;29.60;97.00;;;;;;5019482;28;20199;-46
2023/08/22 08:45:40;;;;;;;19.03;17.90;;;29.80;96.40;;;;;;5020064;28;20915;-47
2023/08/22 08:48:07;;;;;;;19.37;18.10;;;30.00;95.70;;;;;;5019591;28;20425;-44
2023/08/22 08:50:33;;;;;;;19.10;17.90;;;30.30;94.50;;;;;;5019950;28;20241;-47
2023/08/22 08:52:59;;;;;;;18.50;17.30;;;30.80;93.90;;;;;;5018776;28;20451;-46
2023/08/22 08:55:25;;;;;;;20.87;19.57;;;31.10;92.80;;;;;;5019203;28;20914;-45
2023/08/22 08:57:56;;;;;;;19.50;18.13;;;31.60;91.80;;;;;;5019846;28;20429;-43
2023/08/22 09:00:22;;;;;;;20.23;18.90;;;32.10;89.90;;;;;;5019743;28;20228;-46
2023/08/22 09:02:47;;;;;;;19.13;18.03;;;32.60;85.50;;;;;;5019177;28;20441;-47
2023/08/22 09:05:14;;;;;;;19.53;18.40;;;33.00;82.40;;;;;;5018033;28;20194;-45
2023/08/22 09:07:43;;;;;;;19.23;18.13;;;33.30;75.80;;;;;;5019937;28;20186;-41
2023/08/22 09:10:09;;;;;;;18.83;17.73;;;33.50;72.80;;;;;;5019211;28;20464;-44
2023/08/22 09:12:36;;;;;;;19.60;18.40;;;33.60;69.90;;;;;;5018827;28;20444;-47
2023/08/22 09:15:02;;;;;;;20.47;19.27;;;33.80;69.00;;;;;;5019873;28;20484;-45
2023/08/22 09:17:31;;;;;;;19.60;18.40;;;33.90;67.20;;;;;;5019584;28;20420;-43
2023/08/22 09:19:57;;;;;;;19.77;18.37;;;34.00;66.10;;;;;;5019327;28;20506;-45
2023/08/22 09:22:32;;;;;;;19.13;17.93;;;34.10;63.40;;;;;;5019111;28;20440;-43
2023/08/22 09:24:58;;;;;;;19.10;17.97;;;34.60;60.80;;;;;;5019375;28;20635;-43
2023/08/22 09:27:27;;;;;;;19.43;18.33;;;34.80;57.00;;;;;;5019213;28;20483;-44
2023/08/22 09:29:57;;;;;;;20.80;19.60;;;34.80;56.20;;;;;;5022914;28;20246;-49
2023/08/22 09:32:22;;;;;;;20.17;18.90;;;34.50;56.50;;;;;;5022998;28;20716;-45
2023/08/22 09:34:56;;;;;;;19.93;18.63;;;34.20;57.40;;;;;;5023047;28;20493;-42
2023/08/22 09:37:30;;;;;;;18.57;17.47;;;33.80;58.40;;;;;;5023283;28;20174;-45
2023/08/22 09:39:56;;;;;;;19.03;17.93;;;33.80;60.60;;;;;;5023569;28;20436;-46
2023/08/22 09:42:23;;;;;;;19.63;18.33;;;33.70;59.30;;;;;;5020787;28;20448;-47
2023/08/22 09:44:50;;;;;;;18.43;17.43;;;33.80;58.90;;;;;;5022898;28;20222;-43
2023/08/22 09:47:17;;;;;;;18.60;17.60;;;34.10;59.40;;;;;;5023237;28;20436;-46
2023/08/22 09:49:46;;;;;;;18.30;17.23;;;34.90;55.30;;;;;;5022906;28;20421;-50
2023/08/22 09:52:13;;;;;;;18.63;17.43;;;35.70;53.20;;;;;;5022027;28;20536;-47
2023/08/22 09:54:41;;;;;;;20.10;18.90;;;36.00;49.60;;;;;;5022569;28;20849;-45
2023/08/22 09:57:08;;;;;;;18.83;17.83;;;35.90;48.30;;;;;;5023194;28;20421;-46
2023/08/22 09:59:34;;;;;;;18.83;17.73;;;36.30;48.70;;;;;;5023039;28;20836;-47
2023/08/22 10:02:02;;;;;;;18.43;17.53;;;36.80;47.20;;;;;;5022328;28;20599;-45
2023/08/22 10:04:28;;;;;;;19.10;18.00;;;37.40;45.70;;;;;;5021012;28;20452;-46
2023/08/22 10:06:54;;;;;;;18.53;17.53;;;37.90;42.00;;;;;;5023114;28;20503;-44
2023/08/22 10:09:19;;;;;;;18.40;17.50;;;37.90;42.10;;;;;;5022627;28;20413;-48
2023/08/22 10:12:01;;;;;;;18.93;17.73;;;38.20;40.70;;;;;;5022085;28;20598;-47
2023/08/22 10:14:38;;;;;;;18.03;17.13;;;38.60;38.20;;;;;;5022164;28;20226;-45
2023/08/22 10:17:03;;;;;;;18.27;17.30;;;38.70;38.70;;;;;;5022706;28;20408;-48
2023/08/22 10:19:30;;;;;;;17.97;17.07;;;38.80;37.10;;;;;;5022652;28;20983;-48
2023/08/22 10:22:06;;;;;;;17.90;16.90;;;38.80;36.80;;;;;;5021919;28;20225;-50
2023/08/22 10:24:32;;;;;;;18.30;17.30;;;38.60;36.90;;;;;;5022984;28;20875;-47
2023/08/22 10:27:12;;;;;;;17.63;16.73;;;38.50;37.00;;;;;;5022065;28;20471;-43
2023/08/22 10:29:46;;;;;;;18.30;17.30;;;38.90;35.90;;;;;;5020803;28;20487;-44
2023/08/22 10:32:11;;;;;;;17.67;16.77;;;38.90;35.70;;;;;;5022315;28;20744;-47
2023/08/22 10:34:40;;;;;;;17.73;16.83;;;38.90;34.80;;;;;;5021598;28;20437;-48
2023/08/22 10:37:11;;;;;;;17.87;16.97;;;39.00;34.00;;;;;;5022035;28;20193;-49
2023/08/22 10:39:37;;;;;;;16.53;15.70;;;39.40;34.20;;;;;;5022168;28;20773;-47
2023/08/22 10:42:03;;;;;;;17.57;16.60;;;39.50;33.40;;;;;;5022642;28;20868;-44
2023/08/22 10:44:30;;;;;;;18.07;17.17;;;39.80;33.10;;;;;;5021805;28;20186;-46
2023/08/22 10:47:14;;;;;;;18.03;17.03;;;40.40;32.00;;;;;;5020855;28;20233;-44
2023/08/22 10:49:40;;;;;;;18.63;17.63;;;40.40;31.90;;;;;;5021724;28;20429;-47
2023/08/22 10:52:10;;;;;;;18.07;16.90;;;40.30;31.60;;;;;;5022312;28;20430;-47
2023/08/22 10:55:01;;;;;;;17.17;16.17;;;39.90;30.90;;;;;;5020887;28;20269;-46
2023/08/22 10:57:29;;;;;;;16.70;15.60;;;39.20;32.40;;;;;;5022201;28;20445;-43
2023/08/22 11:00:06;;;;;;;15.87;15.07;;;38.70;31.10;;;;;;5021986;28;20510;-44
2023/08/22 11:02:34;;;;;;;15.03;14.33;;;38.20;31.70;;;;;;5020198;28;20443;-45
2023/08/22 11:05:02;;;;;;;15.57;14.80;;;38.10;30.80;;;;;;5020966;28;20621;-45
2023/08/22 11:07:29;;;;;;;14.90;14.20;;;38.20;31.30;;;;;;5021854;28;20435;-43
2023/08/22 11:09:55;;;;;;;15.40;14.60;;;38.50;31.30;;;;;;5021353;28;20893;-45
2023/08/22 11:12:25;;;;;;;14.90;14.10;;;39.10;29.60;;;;;;5021835;28;20410;-43
2023/08/22 11:14:52;;;;;;;14.90;14.10;;;39.60;28.70;;;;;;5021107;28;20224;-51
2023/08/22 11:17:20;;;;;;;15.97;15.07;;;39.80;27.80;;;;;;5021551;28;20977;-45
2023/08/22 11:19:47;;;;;;;15.90;15.10;;;40.40;27.30;;;;;;5021328;28;20473;-47
2023/08/22 11:22:13;;;;;;;15.50;14.77;;;40.30;26.70;;;;;;5021595;28;20417;-46
2023/08/22 11:24:43;;;;;;;15.70;14.90;;;40.20;27.20;;;;;;5021241;28;20475;-48
2023/08/22 11:27:09;;;;;;;14.87;14.17;;;40.00;26.10;;;;;;5021278;28;20417;-48
2023/08/22 11:29:46;;;;;;;15.97;15.13;;;39.60;27.70;;;;;;5020980;28;20967;-47
2023/08/22 11:32:27;;;;;;;16.13;15.03;;;39.60;27.50;;;;;;5021343;28;20489;-43
2023/08/22 11:34:59;;;;;;;14.93;14.23;;;39.00;26.50;;;;;;5020275;28;20472;-46
2023/08/22 11:37:26;;;;;;;14.20;13.60;;;39.10;27.50;;;;;;5021136;28;20414;-44
2023/08/22 11:39:53;;;;;;;14.60;13.77;;;39.40;27.70;;;;;;5020748;28;20463;-49
2023/08/22 11:42:20;;;;;;;14.50;13.80;;;39.80;27.00;;;;;;5021148;28;20433;-43
2023/08/22 11:45:04;;;;;;;14.93;14.13;;;39.90;26.60;;;;;;5020422;28;20507;-45
2023/08/22 11:47:49;;;;;;;14.27;13.57;;;40.40;26.40;;;;;;5021361;28;20969;-48
2023/08/22 11:50:29;;;;;;;14.27;13.57;;;40.30;25.40;;;;;;5020537;28;21254;-49
2023/08/22 11:53:08;;;;;;;14.80;13.93;;;39.80;25.80;;;;;;5020267;28;20421;-46
2023/08/22 11:55:35;;;;;;;14.87;14.17;;;40.00;26.10;;;;;;5020628;28;20420;-48
2023/08/22 11:58:02;;;;;;;14.17;13.47;;;40.20;25.90;;;;;;5021130;28;20453;-48
2023/08/22 12:00:30;;;;;;;13.80;13.20;;;40.50;25.30;;;;;;5020624;28;20413;-43
2023/08/22 12:02:57;;;;;;;14.07;13.37;;;40.70;24.10;;;;;;5020391;28;20451;-44
2023/08/22 12:05:33;;;;;;;14.00;13.30;;;40.90;24.20;;;;;;5020628;28;20444;-45
2023/08/22 12:08:14;;;;;;;14.43;13.77;;;40.90;24.20;;;;;;5020780;28;20477;-46
2023/08/22 12:10:46;;;;;;;14.03;13.40;;;41.20;23.40;;;;;;5020547;28;20452;-45
2023/08/22 12:13:13;;;;;;;14.20;13.40;;;40.60;23.10;;;;;;5019613;28;20531;-46
2023/08/22 12:15:40;;;;;;;14.97;14.27;;;40.30;23.90;;;;;;5020440;28;20504;-47
2023/08/22 12:18:07;;;;;;;14.80;14.10;;;39.60;25.20;;;;;;5020588;28;20418;-42
2023/08/22 12:20:34;;;;;;;14.37;13.67;;;39.50;26.10;;;;;;5020273;28;20450;-43
2023/08/22 12:23:01;;;;;;;14.50;13.60;;;39.60;25.10;;;;;;5019959;28;20463;-44
2023/08/22 12:25:27;;;;;;;14.23;13.50;;;39.60;25.80;;;;;;5020109;28;20523;-45
2023/08/22 12:27:53;;;;;;;15.53;14.47;;;39.50;26.50;;;;;;5020459;28;20994;-46